createdAt,value
2019-01-14T00:02:26.144Z,5.80
2019-01-14T00:08:36.899Z,5.70
2019-01-14T00:11:06.567Z,5.70
2019-01-14T00:13:53.149Z,5.70
2019-01-14T00:16:23.059Z,5.70
2019-01-14T00:18:55.527Z,5.70
2019-01-14T00:21:24.810Z,5.70
2019-01-14T00:23:54.600Z,5.70
2019-01-14T00:26:24.309Z,5.70
2019-01-14T00:29:57.721Z,5.70
2019-01-14T00:32:38.288Z,5.70
2019-01-14T00:35:09.746Z,5.70
2019-01-14T00:37:39.590Z,5.70
2019-01-14T00:40:12.091Z,5.70
2019-01-14T00:42:47.026Z,5.70
2019-01-14T00:45:18.646Z,5.70
2019-01-14T00:47:56.046Z,5.70
2019-01-14T00:50:32.400Z,5.70
2019-01-14T00:53:11.761Z,5.70
2019-01-14T00:55:47.994Z,5.70
2019-01-14T00:58:37.273Z,5.70
2019-01-14T01:01:12.655Z,5.70
2019-01-14T01:03:45.595Z,5.70
2019-01-14T01:06:16.266Z,5.70
2019-01-14T01:09:06.365Z,5.70
2019-01-14T01:11:41.560Z,5.70
2019-01-14T01:17:52.259Z,5.60
2019-01-14T01:20:29.457Z,5.60
2019-01-14T01:23:03.475Z,5.60
2019-01-14T01:25:40.737Z,5.60
2019-01-14T01:28:18.096Z,5.60
2019-01-14T01:34:35.962Z,5.50
2019-01-14T01:37:13.131Z,5.50
2019-01-14T01:39:52.583Z,5.50
2019-01-14T01:42:23.627Z,5.40
2019-01-14T01:44:55.016Z,5.40
2019-01-14T01:47:33.863Z,5.40
2019-01-14T01:50:05.190Z,5.40
2019-01-14T01:52:38.386Z,5.40
2019-01-14T01:58:56.691Z,5.40
2019-01-14T02:01:33.027Z,5.40
2019-01-14T02:04:19.830Z,5.40
2019-01-14T02:06:55.311Z,5.40
2019-01-14T02:13:05.945Z,5.40
2019-01-14T02:15:37.899Z,5.40
2019-01-14T02:18:13.491Z,5.40
2019-01-14T02:20:54.340Z,5.40
2019-01-14T02:23:16.307Z,5.30
2019-01-14T02:25:55.391Z,5.30
2019-01-14T02:28:24.913Z,5.40
2019-01-14T02:31:14.474Z,5.40
2019-01-14T02:34:37.843Z,5.30
2019-01-14T02:36:48.898Z,5.30
2019-01-14T02:39:19.816Z,5.30
2019-01-14T02:41:52.838Z,5.30
2019-01-14T02:44:34.406Z,5.30
2019-01-14T02:47:03.803Z,5.30
2019-01-14T02:49:35.234Z,5.30
2019-01-14T02:52:10.585Z,5.30
2019-01-14T02:58:26.928Z,5.30
2019-01-14T03:01:01.629Z,5.30
2019-01-14T03:03:49.098Z,5.30
2019-01-14T03:06:15.719Z,5.30
2019-01-14T03:08:45.538Z,5.30
2019-01-14T03:12:14.023Z,5.20
2019-01-14T03:14:43.377Z,5.10
2019-01-14T03:17:13.116Z,5.10
2019-01-14T03:19:43.935Z,5.00
2019-01-14T03:22:13.338Z,5.00
2019-01-14T03:24:42.960Z,5.00
2019-01-14T03:27:14.957Z,5.00
2019-01-14T03:29:46.707Z,5.00
2019-01-14T03:32:18.721Z,5.00
2019-01-14T03:34:51.203Z,5.00
2019-01-14T03:37:20.409Z,5.00
2019-01-14T03:39:54.444Z,5.10
2019-01-14T03:42:24.261Z,5.10
2019-01-14T03:44:53.928Z,5.10
2019-01-14T03:47:23.499Z,5.10
2019-01-14T03:52:28.673Z,5.10
2019-01-14T03:58:42.900Z,5.10
2019-01-14T04:01:10.695Z,5.10
2019-01-14T04:03:40.075Z,5.10
2019-01-14T04:06:09.670Z,5.00
2019-01-14T04:08:40.429Z,5.00
2019-01-14T04:14:51.433Z,4.90
2019-01-14T04:17:24.512Z,4.90
2019-01-14T04:19:53.861Z,4.90
2019-01-14T04:22:26.336Z,4.90
2019-01-14T04:25:00.401Z,4.90
2019-01-14T04:27:33.214Z,5.00
2019-01-14T04:30:03.258Z,5.00
2019-01-14T04:32:32.709Z,5.00
2019-01-14T04:35:02.229Z,5.00
2019-01-14T04:37:36.237Z,5.00
2019-01-14T04:40:08.691Z,5.00
2019-01-14T04:42:41.151Z,5.00
2019-01-14T04:45:12.236Z,5.00
2019-01-14T04:47:42.664Z,5.00
2019-01-14T04:50:19.666Z,5.00
2019-01-14T04:52:51.375Z,5.00
2019-01-14T04:59:08.133Z,5.00
2019-01-14T05:01:33.031Z,5.00
2019-01-14T05:04:02.465Z,5.00
2019-01-14T05:06:45.826Z,5.10
2019-01-14T05:09:12.551Z,5.10
2019-01-14T05:12:03.902Z,5.10
2019-01-14T05:14:54.031Z,5.10
2019-01-14T05:17:24.789Z,5.10
2019-01-14T05:19:54.105Z,5.10
2019-01-14T05:22:23.572Z,5.00
2019-01-14T05:24:57.887Z,5.00
2019-01-14T05:27:27.391Z,5.10
2019-01-14T05:29:58.710Z,5.00
2019-01-14T05:32:28.425Z,5.00
2019-01-14T06:13:11.599Z,5.00
2019-01-14T06:45:40.272Z,5.00
2019-01-14T06:58:36.667Z,5.00
2019-01-14T07:01:10.731Z,5.00
2019-01-14T07:03:39.871Z,5.00
2019-01-14T07:06:08.860Z,5.00
2019-01-14T07:08:44.540Z,5.00
2019-01-14T07:11:14.068Z,4.90
2019-01-14T07:13:43.053Z,4.80
2019-01-14T07:16:12.766Z,4.70
2019-01-14T07:18:42.111Z,4.60
2019-01-14T07:21:11.570Z,4.60
2019-01-14T07:23:41.060Z,4.60
2019-01-14T07:26:39.904Z,4.50
2019-01-14T07:29:09.039Z,4.50
2019-01-14T07:31:38.347Z,4.50
2019-01-14T07:34:07.718Z,4.50
2019-01-14T07:36:36.976Z,4.50
2019-01-14T07:39:08.783Z,4.50
2019-01-14T07:41:38.424Z,4.50
2019-01-14T07:44:07.717Z,4.40
2019-01-14T07:46:37.272Z,4.40
2019-01-14T07:49:06.881Z,4.40
2019-01-14T07:51:36.640Z,4.40
2019-01-14T07:54:06.515Z,4.30
2019-01-14T07:56:36.290Z,4.20
2019-01-14T07:59:05.599Z,4.20
2019-01-14T08:01:45.204Z,4.20
2019-01-14T08:04:14.804Z,4.10
2019-01-14T08:06:44.078Z,4.10
2019-01-14T08:09:13.461Z,4.00
2019-01-14T08:11:42.844Z,4.00
2019-01-14T08:14:12.133Z,4.00
2019-01-14T08:16:57.520Z,3.90
2019-01-14T08:19:26.826Z,3.90
2019-01-14T08:22:05.343Z,4.00
2019-01-14T08:24:35.037Z,3.90
2019-01-14T08:27:06.593Z,3.90
2019-01-14T08:29:35.936Z,3.80
2019-01-14T08:32:05.315Z,3.80
2019-01-14T08:34:34.619Z,3.80
2019-01-14T08:37:03.895Z,3.80
2019-01-14T08:43:14.945Z,3.80
2019-01-14T08:45:44.344Z,3.80
2019-01-14T08:48:14.285Z,3.80
2019-01-14T08:50:44.011Z,3.80
2019-01-14T08:53:13.312Z,3.80
2019-01-14T08:55:42.942Z,3.70
2019-01-14T08:58:12.490Z,3.70
2019-01-14T09:00:45.603Z,3.70
2019-01-14T09:03:15.178Z,3.70
2019-01-14T09:05:44.608Z,3.70
2019-01-14T09:08:14.040Z,3.70
2019-01-14T09:10:43.690Z,3.80
2019-01-14T09:13:13.764Z,3.80
2019-01-14T09:15:44.404Z,3.80
2019-01-14T09:18:27.651Z,3.80
2019-01-14T09:20:58.946Z,3.80
2019-01-14T09:23:28.433Z,3.80
2019-01-14T09:25:57.753Z,3.80
2019-01-14T09:28:27.119Z,3.90
2019-01-14T09:30:57.097Z,3.90
2019-01-14T09:33:27.221Z,4.00
2019-01-14T09:35:56.736Z,4.00
2019-01-14T09:38:26.164Z,4.00
2019-01-14T09:40:55.520Z,4.00
2019-01-14T09:43:24.864Z,4.10
2019-01-14T09:45:54.452Z,4.10
2019-01-14T09:48:23.643Z,4.10
2019-01-14T09:50:54.761Z,4.20
2019-01-14T09:53:23.716Z,4.20
2019-01-14T09:55:52.825Z,4.20
2019-01-14T09:58:21.859Z,4.20
2019-01-14T10:04:32.354Z,4.30
2019-01-14T10:07:01.785Z,4.30
2019-01-14T10:09:31.893Z,4.30
2019-01-14T10:12:01.333Z,4.30
2019-01-14T10:14:30.851Z,4.30
2019-01-14T10:17:00.586Z,4.30
2019-01-14T10:19:36.319Z,4.30
2019-01-14T10:22:05.659Z,4.30
2019-01-14T10:24:35.138Z,4.40
2019-01-14T10:27:10.605Z,4.40
2019-01-14T10:29:39.830Z,4.30
2019-01-14T10:32:09.157Z,4.30
2019-01-14T10:37:32.132Z,4.30
2019-01-14T10:40:01.550Z,4.30
2019-01-14T10:42:30.817Z,4.30
2019-01-14T10:45:00.440Z,4.30
2019-01-14T10:47:30.097Z,4.30
2019-01-14T10:49:59.948Z,4.30
2019-01-14T10:52:29.514Z,4.40
2019-01-14T10:55:00.957Z,4.40
2019-01-14T10:57:30.467Z,4.40
2019-01-14T11:00:00.164Z,4.40
2019-01-14T11:02:29.633Z,4.40
2019-01-14T11:04:59.292Z,4.40
2019-01-14T11:07:28.744Z,4.40
2019-01-14T11:09:58.557Z,4.50
2019-01-14T11:12:28.364Z,4.50
2019-01-14T11:14:57.585Z,4.70
2019-01-14T11:17:27.095Z,4.80
2019-01-14T11:19:56.558Z,4.80
2019-01-14T11:22:25.790Z,4.80
2019-01-14T11:24:55.200Z,4.80
2019-01-14T11:27:24.587Z,4.80
2019-01-14T11:29:55.118Z,4.70
2019-01-14T11:32:24.931Z,4.70
2019-01-14T11:34:57.984Z,4.60
2019-01-14T11:37:27.241Z,4.60
2019-01-14T11:42:31.584Z,4.60
2019-01-14T11:45:01.203Z,4.60
2019-01-14T11:47:34.717Z,4.70
2019-01-14T11:50:05.763Z,4.70
2019-01-14T11:52:35.054Z,4.80
2019-01-14T11:55:06.442Z,4.80
2019-01-14T11:57:35.704Z,4.80
2019-01-14T12:00:08.902Z,4.90
2019-01-14T12:02:39.675Z,4.90
2019-01-14T12:05:10.428Z,5.00
2019-01-14T12:07:39.880Z,5.00
2019-01-14T12:10:09.430Z,5.00
2019-01-14T12:12:39.149Z,5.00
2019-01-14T12:15:12.693Z,5.00
2019-01-14T12:17:42.026Z,5.00
2019-01-14T12:20:12.646Z,5.00
2019-01-14T12:22:42.044Z,5.10
2019-01-14T12:25:11.436Z,5.10
2019-01-14T12:28:04.887Z,5.10
2019-01-14T12:30:36.651Z,5.10
2019-01-14T12:33:06.644Z,5.10
2019-01-14T12:35:35.977Z,5.10
2019-01-14T12:38:05.736Z,5.00
2019-01-14T12:40:35.000Z,5.00
2019-01-14T12:43:04.700Z,4.90
2019-01-14T12:45:34.029Z,4.90
2019-01-14T12:48:03.569Z,4.80
2019-01-14T12:50:32.964Z,4.80
2019-01-14T12:53:02.295Z,4.80
2019-01-14T12:56:19.924Z,4.70
2019-01-14T12:58:50.161Z,4.70
2019-01-14T13:01:19.694Z,4.70
2019-01-14T13:03:49.018Z,4.70
2019-01-14T13:06:18.321Z,4.70
2019-01-14T13:08:47.653Z,4.70
2019-01-14T13:11:17.392Z,4.80
2019-01-14T13:13:46.792Z,4.80
2019-01-14T13:16:16.066Z,4.80
2019-01-14T13:18:45.494Z,4.80
2019-01-14T13:21:14.831Z,4.80
2019-01-14T13:23:44.125Z,4.80
2019-01-14T13:26:13.774Z,4.80
2019-01-14T13:28:43.003Z,4.80
2019-01-14T13:31:12.509Z,4.80
2019-01-14T13:33:41.808Z,4.70
2019-01-14T13:36:11.417Z,4.60
2019-01-14T13:38:40.904Z,4.40
2019-01-14T13:41:10.562Z,4.30
2019-01-14T13:43:39.810Z,4.30
2019-01-14T13:46:09.129Z,4.20
2019-01-14T13:48:38.202Z,4.10
2019-01-14T13:51:07.451Z,4.10
2019-01-14T13:53:36.730Z,4.00
2019-01-14T13:56:05.933Z,4.00
2019-01-14T14:01:10.549Z,3.90
2019-01-14T14:03:40.150Z,3.80
2019-01-14T14:06:09.602Z,3.70
2019-01-14T14:08:38.906Z,3.60
2019-01-14T14:11:09.657Z,3.60
2019-01-14T14:13:39.013Z,3.60
2019-01-14T14:16:08.281Z,3.60
2019-01-14T14:18:37.780Z,3.60
2019-01-14T14:21:07.263Z,3.60
2019-01-14T14:23:36.753Z,3.60
2019-01-14T14:26:06.133Z,3.60
2019-01-14T14:28:35.341Z,3.70
2019-01-14T14:31:04.877Z,3.70
2019-01-14T14:33:34.281Z,3.70
2019-01-14T14:36:03.968Z,3.70
2019-01-14T14:38:33.711Z,3.70
2019-01-14T14:41:02.992Z,3.70
2019-01-14T14:43:32.166Z,3.60
2019-01-14T14:46:01.367Z,3.60
2019-01-14T14:48:30.898Z,3.60
2019-01-14T14:51:00.390Z,3.50
2019-01-14T14:53:29.636Z,3.50
2019-01-14T14:55:59.013Z,3.50
2019-01-14T14:58:28.346Z,3.50
2019-01-14T15:00:57.926Z,3.50
2019-01-14T15:03:27.468Z,3.50
2019-01-14T15:05:56.890Z,3.50
2019-01-14T15:08:26.244Z,3.60
2019-01-14T15:10:55.535Z,3.60
2019-01-14T15:13:24.786Z,3.60
2019-01-14T15:15:53.945Z,3.60
2019-01-14T15:18:24.817Z,3.60
2019-01-14T15:20:53.851Z,3.60
2019-01-14T15:23:23.116Z,3.60
2019-01-14T15:26:02.504Z,3.60
2019-01-14T15:28:32.022Z,3.60
2019-01-14T15:31:01.121Z,3.60
2019-01-14T15:33:30.554Z,3.60
2019-01-14T15:35:59.849Z,3.60
2019-01-14T15:38:29.197Z,3.60
2019-01-14T15:41:05.877Z,3.60
2019-01-14T15:43:35.478Z,3.70
2019-01-14T15:46:04.798Z,3.70
2019-01-14T15:48:34.036Z,3.70
2019-01-14T15:51:03.175Z,3.60
2019-01-14T15:57:13.984Z,3.60
2019-01-14T15:59:42.967Z,3.60
2019-01-14T16:02:12.224Z,3.60
2019-01-14T16:04:41.551Z,3.50
2019-01-14T16:07:10.784Z,3.50
2019-01-14T16:09:40.038Z,3.50
2019-01-14T16:12:09.415Z,3.50
2019-01-14T16:14:38.721Z,3.50
2019-01-14T16:17:08.017Z,3.40
2019-01-14T16:19:37.630Z,3.40
2019-01-14T16:22:07.485Z,3.40
2019-01-14T16:25:05.691Z,3.40
2019-01-14T16:27:34.826Z,3.40
2019-01-14T16:30:04.348Z,3.30
2019-01-14T16:32:33.693Z,3.30
2019-01-14T16:35:02.972Z,3.30
2019-01-14T16:37:32.138Z,3.30
2019-01-14T16:40:01.802Z,3.30
2019-01-14T16:42:31.084Z,3.30
2019-01-14T16:45:00.269Z,3.30
2019-01-14T16:47:29.697Z,3.30
2019-01-14T16:49:59.346Z,3.30
2019-01-14T16:52:28.596Z,3.20
2019-01-14T16:54:58.070Z,3.20
2019-01-14T16:57:27.450Z,3.20
2019-01-14T16:59:57.087Z,3.20
2019-01-14T17:02:26.537Z,3.20
2019-01-14T17:04:59.878Z,3.20
2019-01-14T17:07:29.002Z,3.20
2019-01-14T17:10:12.065Z,3.20
2019-01-14T17:12:41.995Z,3.20
2019-01-14T17:15:11.561Z,3.10
2019-01-14T17:17:40.755Z,3.10
2019-01-14T17:20:14.062Z,3.10
2019-01-14T17:22:45.572Z,3.20
2019-01-14T17:25:15.095Z,3.20
2019-01-14T17:27:45.195Z,3.20
2019-01-14T17:30:16.144Z,3.20
2019-01-14T17:32:45.711Z,3.20
2019-01-14T17:35:15.292Z,3.20
2019-01-14T17:37:44.574Z,3.20
2019-01-14T17:40:17.326Z,3.20
2019-01-14T17:42:46.899Z,3.20
2019-01-14T17:45:16.357Z,3.20
2019-01-14T17:47:56.568Z,3.20
2019-01-14T17:50:25.955Z,3.20
2019-01-14T17:52:55.571Z,3.10
2019-01-14T17:55:43.164Z,3.20
2019-01-14T17:58:12.741Z,3.20
2019-01-14T18:00:42.059Z,3.20
2019-01-14T18:03:15.454Z,3.10
2019-01-14T18:05:44.767Z,3.10
2019-01-14T18:08:14.213Z,3.10
2019-01-14T18:10:43.521Z,3.10
2019-01-14T18:13:13.698Z,3.10
2019-01-14T18:19:24.438Z,3.00
2019-01-14T18:21:54.375Z,3.00
2019-01-14T18:24:25.083Z,3.00
2019-01-14T18:27:34.926Z,3.00
2019-01-14T18:30:11.843Z,3.00
2019-01-14T18:32:50.142Z,3.00
2019-01-14T18:35:19.427Z,3.00
2019-01-14T18:37:49.267Z,3.00
2019-01-14T18:44:00.792Z,3.00
2019-01-14T18:50:21.288Z,3.00
2019-01-14T19:10:44.909Z,3.10
2019-01-14T19:13:14.746Z,3.10
2019-01-14T19:15:46.217Z,3.10
2019-01-14T19:18:15.817Z,3.10
2019-01-14T19:20:45.257Z,3.00
2019-01-14T19:27:23.643Z,3.00
2019-01-14T19:29:53.123Z,3.10
2019-01-14T19:36:57.456Z,3.10
2019-01-14T19:39:49.941Z,3.10
2019-01-14T19:42:19.235Z,3.10
2019-01-14T19:44:51.349Z,3.10
2019-01-14T19:51:01.709Z,3.10
2019-01-14T19:53:30.897Z,3.10
2019-01-14T19:56:00.681Z,3.10
2019-01-14T19:58:30.306Z,3.00
2019-01-14T20:01:05.613Z,3.00
2019-01-14T20:03:40.061Z,3.00
2019-01-14T20:07:11.114Z,3.00
2019-01-14T20:16:21.009Z,2.90
2019-01-14T20:18:50.428Z,2.90
2019-01-14T20:21:19.995Z,2.90
2019-01-14T20:27:30.616Z,2.90
2019-01-14T20:30:00.258Z,2.90
2019-01-14T20:36:15.603Z,2.80
2019-01-14T20:38:51.024Z,2.80
2019-01-14T20:41:42.869Z,2.80
2019-01-14T20:51:44.543Z,2.80
2019-01-14T20:54:13.839Z,2.80
2019-01-14T20:56:43.406Z,2.80
2019-01-14T20:59:13.001Z,2.80
2019-01-14T21:01:42.663Z,2.80
2019-01-14T21:04:11.925Z,2.80
2019-01-14T21:06:41.442Z,2.80
2019-01-14T21:09:11.226Z,2.80
2019-01-14T21:11:40.782Z,2.70
2019-01-14T21:17:51.035Z,2.70
2019-01-14T21:20:24.692Z,2.70
2019-01-14T21:22:55.125Z,2.70
2019-01-14T21:25:24.509Z,2.70
2019-01-14T21:27:55.242Z,2.70
2019-01-14T21:30:26.430Z,2.70
2019-01-14T21:36:37.127Z,2.70
2019-01-14T21:39:10.380Z,2.70
2019-01-14T21:45:21.839Z,2.70
2019-01-14T21:47:56.977Z,2.70
2019-01-14T21:50:27.025Z,2.60
2019-01-14T21:56:38.947Z,2.60
2019-01-14T22:02:49.784Z,2.60
2019-01-14T22:05:19.032Z,2.60
2019-01-14T22:11:29.780Z,2.60
2019-01-14T22:13:59.771Z,2.60
2019-01-14T22:16:29.180Z,2.60
2019-01-14T22:18:58.910Z,2.60
2019-01-14T22:21:28.544Z,2.60
2019-01-14T22:27:38.802Z,2.50
2019-01-14T22:30:11.554Z,2.50
2019-01-14T22:33:00.159Z,2.50
2019-01-14T22:35:29.979Z,2.40
2019-01-14T22:38:01.529Z,2.40
2019-01-14T22:40:41.518Z,2.40
2019-01-14T22:44:04.858Z,2.40
2019-01-14T22:46:34.348Z,2.30
2019-01-14T22:49:04.013Z,2.30
2019-01-14T22:55:14.675Z,2.20
2019-01-14T22:57:44.033Z,2.20
2019-01-14T23:00:28.041Z,2.10
2019-01-14T23:02:57.791Z,2.10
2019-01-14T23:09:09.795Z,2.00
2019-01-14T23:11:39.407Z,2.00
2019-01-14T23:14:08.950Z,2.00
2019-01-14T23:16:38.924Z,2.00
2019-01-14T23:19:08.398Z,2.00
2019-01-14T23:21:37.642Z,2.00
2019-01-14T23:24:07.040Z,1.90
2019-01-14T23:26:36.864Z,1.90
2019-01-14T23:29:32.314Z,1.80
2019-01-14T23:32:02.162Z,1.80
2019-01-14T23:34:31.800Z,1.70
2019-01-14T23:37:01.275Z,1.70
2019-01-14T23:39:30.657Z,1.70
2019-01-14T23:42:00.771Z,1.70
2019-01-14T23:48:11.504Z,1.60
2019-01-14T23:50:41.253Z,1.50
2019-01-14T23:53:10.738Z,1.50
2019-01-14T23:55:40.372Z,1.50
2019-01-14T23:58:09.841Z,1.40
